Allport, Pennsylvania
Current Conditions -  °F | °C
As of 6:54 PM on Monday 20 Oct 2014 (Local Time) from KFIG Reporting Station
Overcast Overcast  
Wind Chill: 53°   Ceiling: 8500
Heat Index: 53°   Visibility: 10mi
Dew Point: 38°   Wind: 7mph
Humidity: 57%   Direction: 200°SSW
Pressure: 29.89"   Gusts: NA
Location:  40.96°N, 78.2°W
Report Text: KFIG 202254Z AUTO 20006KT 10SM OVC085 12/03 A2989 RMK AO2 RAE16 SLP128 P0000 T01170033
Loading
Personal Weather Stations






























Interactive Weather Map
Tropical Storm Tracking
New forecast layout! Learn more

10-Day Weather Forecast

Advertisements
Track Severe Weather on mobile